Airfield :







YOU CAN JOIN US ON...

 
LOGIN :

Register | Disclaimer

   EN    FR    IT 

 









Legend :    VFR   Marginal VFR   IFR   Intensive IFR   Very Intensive IFR
Visi :
Ceiling :
>= 8 km
>= 3000ft
5 to 8 km
1000 to 3000 ft
1500m to 5 km
500 to 1000 ft
800 to 1500m
200 to 500 ft
< 800m
< 200 ft
Symbols :   Thunderstorms  Fog  Heavy snow  Heavy precipitations  Wind > 20 kt






- Airport Elevation : 234 ft
- IATA code : PBG


KPBG - Plattsburgh International

CURRENT METAR :
  • 221653Z AUTO 17012G20KT 10SM FEW049 16/06 A2995 RMK AO2 SLP144 T01560056

EXPIRED METARs :
  • 221553Z AUTO 16015G27KT 10SM CLR 16/06 A2997 RMK AO2 PK WND 17028/1542 SLP149 T01560061
  • 221453Z AUTO 19012G18KT 10SM CLR 15/07 A2998 RMK AO2 SLP153 T01500067 58010

TAF KPBG
Valid from the 22 at 12:00 until the 23 at 12:00 UTC


221212Z 2212/2312 15013G23KT P6SM OVC150 WS020/17045KT
FM222300 16009G18KT 5SM -RA BR OVC030 WS020/16045KT
FM230600 00000KT 5SM -RA BR OVC007 WS020/16040KT
FM231100 00000KT P6SM VCSH OVC007



MET'MAP, your aeronautical weather chart ! - Copyright ORBIFLY December 2007 - Disclaimer

ORBIFLY MET'MAP TEAM :

Programming & Development : Alexandra Zaïnal
Concept & Development : Baudouin d'Aumeries
Co-Development & Prog : Marc-Olivier Méhu
Technical & hardware support : Manuel Goepfert

Contact : metmap@orbifly.com




SOURCES & CREDITS :

   NOAA